sensor_id;sensor_type;location;lat;lon;timestamp;pressure;altitude;pressure_sealevel;temperature;humidity
40315;BME280;26021;45.640;11.302;2024-01-07T00:00:47;97009.88;;;7.08;100.00
40315;BME280;26021;45.640;11.302;2024-01-07T00:03:13;96954.09;;;6.66;100.00
40315;BME280;26021;45.640;11.302;2024-01-07T00:05:38;96986.31;;;6.98;100.00
40315;BME280;26021;45.640;11.302;2024-01-07T00:08:04;97004.34;;;7.03;100.00
40315;BME280;26021;45.640;11.302;2024-01-07T00:10:30;97000.88;;;7.09;100.00
40315;BME280;26021;45.640;11.302;2024-01-07T00:12:55;97013.31;;;7.01;100.00
40315;BME280;26021;45.640;11.302;2024-01-07T00:15:20;97008.59;;;6.90;100.00
40315;BME280;26021;45.640;11.302;2024-01-07T00:17:46;97002.84;;;6.87;100.00
40315;BME280;26021;45.640;11.302;2024-01-07T00:20:12;97008.00;;;7.01;100.00
40315;BME280;26021;45.640;11.302;2024-01-07T00:22:37;97011.25;;;6.97;100.00
40315;BME280;26021;45.640;11.302;2024-01-07T00:25:02;97008.97;;;6.87;100.00
40315;BME280;26021;45.640;11.302;2024-01-07T00:27:28;97015.16;;;7.01;100.00
40315;BME280;26021;45.640;11.302;2024-01-07T00:29:53;97009.88;;;7.08;100.00
40315;BME280;26021;45.640;11.302;2024-01-07T00:32:19;97008.00;;;6.95;100.00
40315;BME280;26021;45.640;11.302;2024-01-07T00:34:44;96982.22;;;6.89;100.00
40315;BME280;26021;45.640;11.302;2024-01-07T00:37:10;97007.63;;;7.05;100.00
40315;BME280;26021;45.640;11.302;2024-01-07T00:39:35;97012.94;;;7.05;100.00
40315;BME280;26021;45.640;11.302;2024-01-07T00:42:01;97007.00;;;7.03;100.00
40315;BME280;26021;45.640;11.302;2024-01-07T00:44:26;97010.25;;;6.98;100.00
40315;BME280;26021;45.640;11.302;2024-01-07T00:46:51;97010.44;;;6.96;100.00
40315;BME280;26021;45.640;11.302;2024-01-07T00:49:17;97014.94;;;6.96;100.00
40315;BME280;26021;45.640;11.302;2024-01-07T00:51:42;97018.41;;;6.90;100.00
40315;BME280;26021;45.640;11.302;2024-01-07T00:54:08;97015.13;;;6.88;100.00
40315;BME280;26021;45.640;11.302;2024-01-07T00:56:33;97017.59;;;6.96;100.00
40315;BME280;26021;45.640;11.302;2024-01-07T00:58:59;97016.31;;;6.85;100.00
40315;BME280;26021;45.640;11.302;2024-01-07T01:01:24;97011.84;;;6.86;100.00
40315;BME280;26021;45.640;11.302;2024-01-07T01:03:50;97014.91;;;6.89;100.00
40315;BME280;26021;45.640;11.302;2024-01-07T01:06:15;97023.06;;;6.81;100.00
40315;BME280;26021;45.640;11.302;2024-01-07T01:08:40;97027.75;;;6.79;100.00
40315;BME280;26021;45.640;11.302;2024-01-07T01:11:09;96975.25;;;6.47;100.00
40315;BME280;26021;45.640;11.302;2024-01-07T01:13:35;97026.50;;;6.75;100.00
40315;BME280;26021;45.640;11.302;2024-01-07T01:16:00;96866.94;;;5.66;100.00
40315;BME280;26021;45.640;11.302;2024-01-07T01:18:25;97035.25;;;6.69;100.00
40315;BME280;26021;45.640;11.302;2024-01-07T01:20:51;97031.19;;;6.73;100.00
40315;BME280;26021;45.640;11.302;2024-01-07T01:23:16;97037.84;;;6.62;100.00
40315;BME280;26021;45.640;11.302;2024-01-07T01:25:42;97043.59;;;6.66;100.00
40315;BME280;26021;45.640;11.302;2024-01-07T01:28:07;97041.19;;;6.71;100.00
40315;BME280;26021;45.640;11.302;2024-01-07T01:30:32;97033.22;;;6.71;100.00
40315;BME280;26021;45.640;11.302;2024-01-07T01:32:58;97038.16;;;6.74;100.00
40315;BME280;26021;45.640;11.302;2024-01-07T01:35:23;97039.09;;;6.66;100.00
40315;BME280;26021;45.640;11.302;2024-01-07T01:37:49;97046.06;;;6.67;100.00
40315;BME280;26021;45.640;11.302;2024-01-07T01:40:16;97040.31;;;6.64;100.00
40315;BME280;26021;45.640;11.302;2024-01-07T01:42:45;97042.09;;;6.57;100.00
40315;BME280;26021;45.640;11.302;2024-01-07T01:45:13;97041.69;;;6.53;100.00
40315;BME280;26021;45.640;11.302;2024-01-07T01:47:39;97037.81;;;6.56;100.00
40315;BME280;26021;45.640;11.302;2024-01-07T01:50:06;97032.78;;;6.67;100.00
40315;BME280;26021;45.640;11.302;2024-01-07T01:52:31;97030.19;;;6.74;100.00
40315;BME280;26021;45.640;11.302;2024-01-07T01:54:57;97032.97;;;6.66;100.00
40315;BME280;26021;45.640;11.302;2024-01-07T01:57:31;97021.13;;;6.68;100.00
40315;BME280;26021;45.640;11.302;2024-01-07T01:59:57;97034.41;;;6.68;100.00
40315;BME280;26021;45.640;11.302;2024-01-07T02:02:28;97036.41;;;6.60;100.00
40315;BME280;26021;45.640;11.302;2024-01-07T02:04:55;97027.63;;;6.59;100.00
40315;BME280;26021;45.640;11.302;2024-01-07T02:07:20;97027.84;;;6.64;100.00
40315;BME280;26021;45.640;11.302;2024-01-07T02:09:46;97035.59;;;6.59;100.00
40315;BME280;26021;45.640;11.302;2024-01-07T02:12:11;97027.22;;;6.62;100.00
40315;BME280;26021;45.640;11.302;2024-01-07T02:14:37;97020.50;;;6.66;100.00
40315;BME280;26021;45.640;11.302;2024-01-07T02:17:03;97016.22;;;6.65;100.00
40315;BME280;26021;45.640;11.302;2024-01-07T02:19:28;97013.72;;;6.57;100.00
40315;BME280;26021;45.640;11.302;2024-01-07T02:21:54;97028.22;;;6.55;100.00
40315;BME280;26021;45.640;11.302;2024-01-07T02:24:20;97002.75;;;6.32;100.00
40315;BME280;26021;45.640;11.302;2024-01-07T02:26:45;97009.94;;;6.38;100.00
40315;BME280;26021;45.640;11.302;2024-01-07T02:29:11;97002.81;;;6.46;100.00
40315;BME280;26021;45.640;11.302;2024-01-07T02:31:36;96998.56;;;6.51;100.00
40315;BME280;26021;45.640;11.302;2024-01-07T02:34:02;97018.25;;;6.63;100.00
40315;BME280;26021;45.640;11.302;2024-01-07T02:36:27;97010.66;;;6.60;100.00
40315;BME280;26021;45.640;11.302;2024-01-07T02:38:52;97003.88;;;6.51;100.00
40315;BME280;26021;45.640;11.302;2024-01-07T02:41:18;97000.06;;;6.67;100.00
40315;BME280;26021;45.640;11.302;2024-01-07T02:43:45;96998.19;;;6.61;100.00
40315;BME280;26021;45.640;11.302;2024-01-07T02:46:10;97003.19;;;6.71;100.00
40315;BME280;26021;45.640;11.302;2024-01-07T02:48:36;96998.88;;;6.69;100.00
40315;BME280;26021;45.640;11.302;2024-01-07T02:51:01;96992.91;;;6.67;100.00
40315;BME280;26021;45.640;11.302;2024-01-07T02:53:28;97003.50;;;6.61;100.00
40315;BME280;26021;45.640;11.302;2024-01-07T02:55:54;96993.75;;;6.68;100.00
40315;BME280;26021;45.640;11.302;2024-01-07T02:58:19;96998.91;;;6.76;100.00
40315;BME280;26021;45.640;11.302;2024-01-07T03:00:45;97000.13;;;6.74;100.00
40315;BME280;26021;45.640;11.302;2024-01-07T03:03:10;96995.00;;;6.72;100.00
40315;BME280;26021;45.640;11.302;2024-01-07T03:05:36;96994.44;;;6.77;100.00
40315;BME280;26021;45.640;11.302;2024-01-07T03:08:01;96992.97;;;6.74;100.00
40315;BME280;26021;45.640;11.302;2024-01-07T03:10:26;96987.59;;;6.67;100.00
40315;BME280;26021;45.640;11.302;2024-01-07T03:12:52;96995.78;;;6.66;100.00
40315;BME280;26021;45.640;11.302;2024-01-07T03:15:17;97003.13;;;6.64;100.00
40315;BME280;26021;45.640;11.302;2024-01-07T03:17:44;97003.28;;;6.56;100.00
40315;BME280;26021;45.640;11.302;2024-01-07T03:20:10;96994.19;;;6.72;100.00
40315;BME280;26021;45.640;11.302;2024-01-07T03:22:35;97002.91;;;6.59;100.00
40315;BME280;26021;45.640;11.302;2024-01-07T03:25:01;97002.47;;;6.55;100.00
40315;BME280;26021;45.640;11.302;2024-01-07T03:27:26;97004.72;;;6.58;100.00
40315;BME280;26021;45.640;11.302;2024-01-07T03:29:52;97001.41;;;6.50;100.00
40315;BME280;26021;45.640;11.302;2024-01-07T03:32:17;97013.13;;;6.62;100.00
40315;BME280;26021;45.640;11.302;2024-01-07T03:34:43;97001.34;;;6.36;100.00
40315;BME280;26021;45.640;11.302;2024-01-07T03:37:08;96949.78;;;6.18;100.00
40315;BME280;26021;45.640;11.302;2024-01-07T03:39:34;97010.91;;;6.65;100.00
40315;BME280;26021;45.640;11.302;2024-01-07T03:42:00;97016.19;;;6.59;100.00
40315;BME280;26021;45.640;11.302;2024-01-07T03:44:25;97016.53;;;6.49;100.00
40315;BME280;26021;45.640;11.302;2024-01-07T03:46:51;97023.88;;;6.47;100.00
40315;BME280;26021;45.640;11.302;2024-01-07T03:49:16;97022.81;;;6.42;100.00
40315;BME280;26021;45.640;11.302;2024-01-07T03:51:43;96968.06;;;6.06;100.00
40315;BME280;26021;45.640;11.302;2024-01-07T03:54:09;97021.19;;;6.41;100.00
40315;BME280;26021;45.640;11.302;2024-01-07T03:56:34;97022.81;;;6.42;100.00
40315;BME280;26021;45.640;11.302;2024-01-07T03:59:00;96971.34;;;6.08;100.00
40315;BME280;26021;45.640;11.302;2024-01-07T04:01:25;97021.81;;;6.43;100.00
40315;BME280;26021;45.640;11.302;2024-01-07T04:03:51;97025.88;;;6.38;100.00
40315;BME280;26021;45.640;11.302;2024-01-07T04:06:16;97030.53;;;6.36;100.00
40315;BME280;26021;45.640;11.302;2024-01-07T04:08:41;97029.53;;;6.37;100.00
40315;BME280;26021;45.640;11.302;2024-01-07T04:11:07;97031.94;;;6.32;100.00
40315;BME280;26021;45.640;11.302;2024-01-07T04:13:32;97023.22;;;6.38;100.00
40315;BME280;26021;45.640;11.302;2024-01-07T04:15:58;97015.81;;;6.34;100.00
40315;BME280;26021;45.640;11.302;2024-01-07T04:18:23;97017.66;;;6.33;100.00
40315;BME280;26021;45.640;11.302;2024-01-07T04:20:49;97016.84;;;6.33;100.00
40315;BME280;26021;45.640;11.302;2024-01-07T04:23:14;97022.16;;;6.33;100.00
40315;BME280;26021;45.640;11.302;2024-01-07T04:25:39;97022.53;;;6.30;100.00
40315;BME280;26021;45.640;11.302;2024-01-07T04:28:07;97016.84;;;6.33;100.00
40315;BME280;26021;45.640;11.302;2024-01-07T04:30:33;97017.69;;;6.40;100.00
40315;BME280;26021;45.640;11.302;2024-01-07T04:32:58;97013.44;;;6.46;100.00
40315;BME280;26021;45.640;11.302;2024-01-07T04:35:24;97007.38;;;6.58;100.00
40315;BME280;26021;45.640;11.302;2024-01-07T04:37:49;97005.16;;;6.62;100.00
40315;BME280;26021;45.640;11.302;2024-01-07T04:40:14;97018.22;;;6.57;100.00
40315;BME280;26021;45.640;11.302;2024-01-07T04:42:40;96955.69;;;6.20;100.00
40315;BME280;26021;45.640;11.302;2024-01-07T04:45:06;97017.34;;;6.50;100.00
40315;BME280;26021;45.640;11.302;2024-01-07T04:47:33;97002.91;;;6.59;100.00
40315;BME280;26021;45.640;11.302;2024-01-07T04:50:02;97001.91;;;6.66;100.00
40315;BME280;26021;45.640;11.302;2024-01-07T04:52:28;96948.63;;;6.33;100.00
40315;BME280;26021;45.640;11.302;2024-01-07T04:54:54;97005.31;;;6.54;100.00
40315;BME280;26021;45.640;11.302;2024-01-07T04:57:21;97019.03;;;6.57;100.00
40315;BME280;26021;45.640;11.302;2024-01-07T04:59:47;97015.94;;;6.54;100.00
40315;BME280;26021;45.640;11.302;2024-01-07T05:02:12;97005.06;;;6.42;100.00
40315;BME280;26021;45.640;11.302;2024-01-07T05:04:38;97010.19;;;6.50;100.00
40315;BME280;26021;45.640;11.302;2024-01-07T05:07:04;96955.56;;;6.34;100.00
40315;BME280;26021;45.640;11.302;2024-01-07T05:09:29;97000.53;;;6.71;100.00
40315;BME280;26021;45.640;11.302;2024-01-07T05:11:55;96971.81;;;6.53;100.00
40315;BME280;26021;45.640;11.302;2024-01-07T05:14:20;97008.53;;;6.77;100.00
40315;BME280;26021;45.640;11.302;2024-01-07T05:16:47;96991.97;;;6.41;100.00
40315;BME280;26021;45.640;11.302;2024-01-07T05:19:13;97011.22;;;6.49;100.00
40315;BME280;26021;45.640;11.302;2024-01-07T05:21:38;97019.31;;;6.69;100.00
40315;BME280;26021;45.640;11.302;2024-01-07T05:24:04;97018.88;;;6.65;100.00
40315;BME280;26021;45.640;11.302;2024-01-07T05:26:30;97008.59;;;6.56;100.00
40315;BME280;26021;45.640;11.302;2024-01-07T05:28:55;97005.59;;;6.65;100.00
40315;BME280;26021;45.640;11.302;2024-01-07T05:31:22;97006.22;;;6.67;100.00
40315;BME280;26021;45.640;11.302;2024-01-07T05:33:47;97024.44;;;6.71;100.00
40315;BME280;26021;45.640;11.302;2024-01-07T05:36:13;97029.97;;;6.76;100.00
40315;BME280;26021;45.640;11.302;2024-01-07T05:38:39;97029.75;;;6.71;100.00
40315;BME280;26021;45.640;11.302;2024-01-07T05:41:06;97034.66;;;6.74;100.00
40315;BME280;26021;45.640;11.302;2024-01-07T05:43:31;97026.94;;;6.79;100.00
40315;BME280;26021;45.640;11.302;2024-01-07T05:45:57;97017.03;;;6.66;100.00
40315;BME280;26021;45.640;11.302;2024-01-07T05:48:22;97035.69;;;6.73;100.00
40315;BME280;26021;45.640;11.302;2024-01-07T05:50:48;97023.88;;;6.47;100.00
40315;BME280;26021;45.640;11.302;2024-01-07T05:53:14;96972.88;;;6.24;100.00
40315;BME280;26021;45.640;11.302;2024-01-07T05:55:39;97042.69;;;6.80;100.00
40315;BME280;26021;45.640;11.302;2024-01-07T05:58:05;97048.09;;;6.65;100.00
40315;BME280;26021;45.640;11.302;2024-01-07T06:00:30;97059.72;;;6.64;100.00
40315;BME280;26021;45.640;11.302;2024-01-07T06:02:56;97062.25;;;6.45;100.00
40315;BME280;26021;45.640;11.302;2024-01-07T06:05:22;97066.41;;;6.54;100.00
40315;BME280;26021;45.640;11.302;2024-01-07T06:07:48;97064.34;;;6.49;100.00
40315;BME280;26021;45.640;11.302;2024-01-07T06:10:13;97052.88;;;6.49;100.00
40315;BME280;26021;45.640;11.302;2024-01-07T06:12:38;97066.41;;;6.54;100.00
40315;BME280;26021;45.640;11.302;2024-01-07T06:15:04;97068.00;;;6.48;100.00
40315;BME280;26021;45.640;11.302;2024-01-07T06:17:30;96905.94;;;5.45;100.00
40315;BME280;26021;45.640;11.302;2024-01-07T06:19:56;97073.50;;;6.47;100.00
40315;BME280;26021;45.640;11.302;2024-01-07T06:22:22;97071.09;;;6.52;100.00
40315;BME280;26021;45.640;11.302;2024-01-07T06:24:47;97055.09;;;6.73;100.00
40315;BME280;26021;45.640;11.302;2024-01-07T06:27:13;97049.22;;;6.84;100.00
40315;BME280;26021;45.640;11.302;2024-01-07T06:29:39;97046.03;;;6.61;100.00
40315;BME280;26021;45.640;11.302;2024-01-07T06:32:04;96929.38;;;5.69;100.00
40315;BME280;26021;45.640;11.302;2024-01-07T06:34:30;97075.19;;;6.54;100.00
40315;BME280;26021;45.640;11.302;2024-01-07T06:36:55;97076.63;;;6.57;100.00
40315;BME280;26021;45.640;11.302;2024-01-07T06:39:20;97069.09;;;6.60;100.00
40315;BME280;26021;45.640;11.302;2024-01-07T06:41:46;97070.66;;;6.76;100.00
40315;BME280;26021;45.640;11.302;2024-01-07T06:44:11;97060.31;;;6.60;100.00
40315;BME280;26021;45.640;11.302;2024-01-07T06:46:37;97074.75;;;6.79;100.00
40315;BME280;26021;45.640;11.302;2024-01-07T06:49:02;97087.63;;;6.75;100.00
40315;BME280;26021;45.640;11.302;2024-01-07T06:51:28;97098.16;;;6.68;100.00
40315;BME280;26021;45.640;11.302;2024-01-07T06:53:54;97100.97;;;6.60;100.00
40315;BME280;26021;45.640;11.302;2024-01-07T06:56:19;97101.41;;;6.64;100.00
40315;BME280;26021;45.640;11.302;2024-01-07T06:58:44;97108.63;;;6.70;100.00
40315;BME280;26021;45.640;11.302;2024-01-07T07:01:10;97108.75;;;6.62;100.00
40315;BME280;26021;45.640;11.302;2024-01-07T07:03:36;97108.09;;;6.53;100.00
40315;BME280;26021;45.640;11.302;2024-01-07T07:06:02;97117.31;;;6.57;100.00
40315;BME280;26021;45.640;11.302;2024-01-07T07:08:27;97124.06;;;6.60;100.00
40315;BME280;26021;45.640;11.302;2024-01-07T07:10:53;97124.16;;;6.45;100.00
40315;BME280;26021;45.640;11.302;2024-01-07T07:13:18;97129.63;;;6.37;100.00
40315;BME280;26021;45.640;11.302;2024-01-07T07:15:44;97069.59;;;6.15;100.00
40315;BME280;26021;45.640;11.302;2024-01-07T07:18:09;97133.72;;;6.40;100.00
40315;BME280;26021;45.640;11.302;2024-01-07T07:20:34;97139.16;;;6.31;100.00
40315;BME280;26021;45.640;11.302;2024-01-07T07:23:00;97148.47;;;6.21;100.00
40315;BME280;26021;45.640;11.302;2024-01-07T07:25:25;97147.22;;;6.17;100.00
40315;BME280;26021;45.640;11.302;2024-01-07T07:27:50;97144.66;;;6.30;100.00
40315;BME280;26021;45.640;11.302;2024-01-07T07:30:16;97150.81;;;6.30;100.00
40315;BME280;26021;45.640;11.302;2024-01-07T07:32:41;97114.78;;;6.21;100.00
40315;BME280;26021;45.640;11.302;2024-01-07T07:35:07;97147.19;;;6.38;100.00
40315;BME280;26021;45.640;11.302;2024-01-07T07:37:33;97152.13;;;6.41;100.00
40315;BME280;26021;45.640;11.302;2024-01-07T07:39:58;97153.63;;;6.50;100.00
40315;BME280;26021;45.640;11.302;2024-01-07T07:42:24;97163.81;;;6.47;100.00
40315;BME280;26021;45.640;11.302;2024-01-07T07:44:49;97121.88;;;6.14;100.00
40315;BME280;26021;45.640;11.302;2024-01-07T07:47:15;97157.75;;;6.31;100.00
40315;BME280;26021;45.640;11.302;2024-01-07T07:49:40;97166.97;;;6.35;100.00
40315;BME280;26021;45.640;11.302;2024-01-07T07:52:09;97171.28;;;6.36;100.00
40315;BME280;26021;45.640;11.302;2024-01-07T07:54:36;97175.06;;;6.49;100.00
40315;BME280;26021;45.640;11.302;2024-01-07T07:57:02;97170.00;;;6.54;100.00
40315;BME280;26021;45.640;11.302;2024-01-07T07:59:27;97171.16;;;6.45;100.00
40315;BME280;26021;45.640;11.302;2024-01-07T08:01:53;97179.34;;;6.50;100.00
40315;BME280;26021;45.640;11.302;2024-01-07T08:04:18;97176.91;;;6.48;100.00
40315;BME280;26021;45.640;11.302;2024-01-07T08:06:44;97185.06;;;6.47;100.00
40315;BME280;26021;45.640;11.302;2024-01-07T08:09:10;97188.38;;;6.55;100.00
40315;BME280;26021;45.640;11.302;2024-01-07T08:11:36;97173.91;;;6.58;100.00
40315;BME280;26021;45.640;11.302;2024-01-07T08:14:01;97173.09;;;6.57;100.00
40315;BME280;26021;45.640;11.302;2024-01-07T08:16:27;97184.03;;;6.48;100.00
40315;BME280;26021;45.640;11.302;2024-01-07T08:18:52;97189.91;;;6.43;100.00
40315;BME280;26021;45.640;11.302;2024-01-07T08:21:21;97183.97;;;6.41;100.00
40315;BME280;26021;45.640;11.302;2024-01-07T08:23:48;97176.22;;;6.40;100.00
40315;BME280;26021;45.640;11.302;2024-01-07T08:26:18;97195.09;;;6.51;100.00
40315;BME280;26021;45.640;11.302;2024-01-07T08:28:44;97201.63;;;6.49;100.00
40315;BME280;26021;45.640;11.302;2024-01-07T08:31:09;97206.16;;;6.55;100.00
40315;BME280;26021;45.640;11.302;2024-01-07T08:33:35;97134.84;;;6.02;100.00
40315;BME280;26021;45.640;11.302;2024-01-07T08:36:00;97210.72;;;6.61;100.00
40315;BME280;26021;45.640;11.302;2024-01-07T08:38:26;97210.03;;;6.52;100.00
40315;BME280;26021;45.640;11.302;2024-01-07T08:40:51;97203.50;;;6.55;100.00
40315;BME280;26021;45.640;11.302;2024-01-07T08:43:17;97205.97;;;6.56;100.00
40315;BME280;26021;45.640;11.302;2024-01-07T08:45:42;97215.09;;;6.47;100.00
40315;BME280;26021;45.640;11.302;2024-01-07T08:48:08;97202.00;;;6.46;100.00
40315;BME280;26021;45.640;11.302;2024-01-07T08:50:33;97214.94;;;6.55;100.00
40315;BME280;26021;45.640;11.302;2024-01-07T08:52:59;97210.28;;;6.57;100.00
40315;BME280;26021;45.640;11.302;2024-01-07T08:55:24;97214.31;;;6.53;100.00
40315;BME280;26021;45.640;11.302;2024-01-07T08:57:50;97100.91;;;5.83;100.00
40315;BME280;26021;45.640;11.302;2024-01-07T09:00:15;97225.06;;;6.66;100.00
40315;BME280;26021;45.640;11.302;2024-01-07T09:02:41;97067.81;;;5.58;100.00
40315;BME280;26021;45.640;11.302;2024-01-07T09:05:06;97226.78;;;6.74;100.00
40315;BME280;26021;45.640;11.302;2024-01-07T09:07:32;97166.28;;;6.27;100.00
40315;BME280;26021;45.640;11.302;2024-01-07T09:09:57;97230.47;;;6.73;100.00
40315;BME280;26021;45.640;11.302;2024-01-07T09:12:27;97234.31;;;6.71;100.00
40315;BME280;26021;45.640;11.302;2024-01-07T09:14:53;97184.03;;;6.48;100.00
40315;BME280;26021;45.640;11.302;2024-01-07T09:17:19;97214.56;;;6.58;100.00
40315;BME280;26021;45.640;11.302;2024-01-07T09:19:44;97237.34;;;6.67;100.00
40315;BME280;26021;45.640;11.302;2024-01-07T09:22:10;97238.66;;;6.57;100.00
40315;BME280;26021;45.640;11.302;2024-01-07T09:24:37;97242.78;;;6.59;100.00
40315;BME280;26021;45.640;11.302;2024-01-07T09:27:02;97248.09;;;6.59;100.00
40315;BME280;26021;45.640;11.302;2024-01-07T09:29:28;97252.72;;;6.51;100.00
40315;BME280;26021;45.640;11.302;2024-01-07T09:31:53;97252.63;;;6.65;100.00
40315;BME280;26021;45.640;11.302;2024-01-07T09:34:18;97257.41;;;6.70;100.00
40315;BME280;26021;45.640;11.302;2024-01-07T09:36:44;97255.00;;;6.75;100.00
40315;BME280;26021;45.640;11.302;2024-01-07T09:39:09;97242.28;;;6.71;100.00
40315;BME280;26021;45.640;11.302;2024-01-07T09:41:35;97261.53;;;6.73;100.00
40315;BME280;26021;45.640;11.302;2024-01-07T09:44:01;97267.03;;;6.71;100.00
40315;BME280;26021;45.640;11.302;2024-01-07T09:46:29;97267.22;;;6.69;100.00
40315;BME280;26021;45.640;11.302;2024-01-07T09:48:55;97263.47;;;6.64;100.00
40315;BME280;26021;45.640;11.302;2024-01-07T09:51:22;97265.72;;;6.67;100.00
40315;BME280;26021;45.640;11.302;2024-01-07T09:53:48;97266.75;;;6.66;100.00
40315;BME280;26021;45.640;11.302;2024-01-07T09:56:24;97202.78;;;6.18;100.00
40315;BME280;26021;45.640;11.302;2024-01-07T09:58:50;97266.84;;;6.73;100.00
40315;BME280;26021;45.640;11.302;2024-01-07T10:01:17;97221.34;;;6.40;100.00
40315;BME280;26021;45.640;11.302;2024-01-07T10:03:43;97275.53;;;6.66;100.00
40315;BME280;26021;45.640;11.302;2024-01-07T10:06:10;97272.34;;;6.71;100.00
40315;BME280;26021;45.640;11.302;2024-01-07T10:08:36;97241.41;;;6.42;100.00
40315;BME280;26021;45.640;11.302;2024-01-07T10:11:02;97278.66;;;6.70;100.00
40315;BME280;26021;45.640;11.302;2024-01-07T10:13:28;97268.91;;;6.56;100.00
40315;BME280;26021;45.640;11.302;2024-01-07T10:15:54;97241.19;;;6.44;100.00
40315;BME280;26021;45.640;11.302;2024-01-07T10:18:20;97274.09;;;6.43;100.00
40315;BME280;26021;45.640;11.302;2024-01-07T10:20:45;97263.72;;;6.48;100.00
40315;BME280;26021;45.640;11.302;2024-01-07T10:23:11;97268.78;;;6.43;100.00
40315;BME280;26021;45.640;11.302;2024-01-07T10:25:36;97247.97;;;6.46;100.00
40315;BME280;26021;45.640;11.302;2024-01-07T10:28:03;97245.69;;;6.43;100.00
40315;BME280;26021;45.640;11.302;2024-01-07T10:30:49;97255.19;;;6.52;100.00
40315;BME280;26021;45.640;11.302;2024-01-07T10:33:17;97253.41;;;6.59;100.00
40315;BME280;26021;45.640;11.302;2024-01-07T10:35:50;97256.38;;;6.50;100.00
40315;BME280;26021;45.640;11.302;2024-01-07T10:38:16;97257.59;;;6.47;100.00
40315;BME280;26021;45.640;11.302;2024-01-07T10:40:43;97248.84;;;6.53;100.00
40315;BME280;26021;45.640;11.302;2024-01-07T10:43:11;97246.38;;;6.52;100.00
40315;BME280;26021;45.640;11.302;2024-01-07T10:45:38;97249.53;;;6.62;100.00
40315;BME280;26021;45.640;11.302;2024-01-07T10:48:04;97243.16;;;6.56;100.00
40315;BME280;26021;45.640;11.302;2024-01-07T10:50:32;97247.72;;;6.62;100.00
40315;BME280;26021;45.640;11.302;2024-01-07T10:53:03;97242.53;;;6.54;100.00
40315;BME280;26021;45.640;11.302;2024-01-07T10:55:33;97243.47;;;6.47;100.00
40315;BME280;26021;45.640;11.302;2024-01-07T10:58:00;97247.78;;;6.48;100.00
40315;BME280;26021;45.640;11.302;2024-01-07T11:00:26;97247.59;;;6.49;100.00
40315;BME280;26021;45.640;11.302;2024-01-07T11:03:27;97247.16;;;6.46;100.00
40315;BME280;26021;45.640;11.302;2024-01-07T11:06:19;97248.66;;;6.55;100.00
40315;BME280;26021;45.640;11.302;2024-01-07T11:08:59;97245.94;;;6.48;100.00
40315;BME280;26021;45.640;11.302;2024-01-07T11:11:48;97246.13;;;6.47;100.00
40315;BME280;26021;45.640;11.302;2024-01-07T11:17:02;97197.28;;;6.20;100.00
40315;BME280;26021;45.640;11.302;2024-01-07T11:19:28;97246.69;;;6.63;100.00
40315;BME280;26021;45.640;11.302;2024-01-07T11:22:26;97239.88;;;6.54;100.00
40315;BME280;26021;45.640;11.302;2024-01-07T11:24:55;97241.19;;;6.65;100.00
40315;BME280;26021;45.640;11.302;2024-01-07T11:27:22;97189.69;;;6.38;100.00
40315;BME280;26021;45.640;11.302;2024-01-07T11:29:55;97185.94;;;6.32;100.00
40315;BME280;26021;45.640;11.302;2024-01-07T11:32:23;97229.31;;;6.61;100.00
40315;BME280;26021;45.640;11.302;2024-01-07T11:34:50;97236.50;;;6.67;100.00
40315;BME280;26021;45.640;11.302;2024-01-07T11:37:19;97204.03;;;6.44;100.00
40315;BME280;26021;45.640;11.302;2024-01-07T11:39:45;97233.75;;;6.54;100.00
40315;BME280;26021;45.640;11.302;2024-01-07T11:42:11;97173.50;;;6.12;100.00
40315;BME280;26021;45.640;11.302;2024-01-07T11:44:37;97239.69;;;6.56;100.00
40315;BME280;26021;45.640;11.302;2024-01-07T11:47:04;97206.31;;;6.47;100.00
40315;BME280;26021;45.640;11.302;2024-01-07T11:49:31;97230.75;;;6.63;100.00
40315;BME280;26021;45.640;11.302;2024-01-07T11:51:57;97220.03;;;6.72;100.00
40315;BME280;26021;45.640;11.302;2024-01-07T11:54:22;97223.75;;;6.77;100.00
40315;BME280;26021;45.640;11.302;2024-01-07T11:56:48;97229.31;;;6.82;100.00
40315;BME280;26021;45.640;11.302;2024-01-07T11:59:13;97222.41;;;6.88;100.00
40315;BME280;26021;45.640;11.302;2024-01-07T12:01:38;97201.03;;;6.75;100.00
40315;BME280;26021;45.640;11.302;2024-01-07T12:04:04;97218.97;;;6.94;100.00
40315;BME280;26021;45.640;11.302;2024-01-07T12:06:29;97217.03;;;7.09;100.00
40315;BME280;26021;45.640;11.302;2024-01-07T12:08:55;97215.16;;;7.03;100.00
40315;BME280;26021;45.640;11.302;2024-01-07T12:11:20;97162.31;;;6.65;100.00
40315;BME280;26021;45.640;11.302;2024-01-07T12:13:46;97230.38;;;6.88;100.00
40315;BME280;26021;45.640;11.302;2024-01-07T12:16:12;97179.69;;;6.40;100.00
40315;BME280;26021;45.640;11.302;2024-01-07T12:18:39;97223.94;;;6.76;100.00
40315;BME280;26021;45.640;11.302;2024-01-07T12:21:04;97224.38;;;6.79;100.00
40315;BME280;26021;45.640;11.302;2024-01-07T12:23:34;97179.28;;;6.64;100.00
40315;BME280;26021;45.640;11.302;2024-01-07T12:26:10;97219.94;;;6.86;100.00
40315;BME280;26021;45.640;11.302;2024-01-07T12:28:36;97222.50;;;7.01;100.00
40315;BME280;26021;45.640;11.302;2024-01-07T12:31:03;97209.41;;;6.99;100.00
40315;BME280;26021;45.640;11.302;2024-01-07T12:33:29;97199.53;;;6.93;100.00
40315;BME280;26021;45.640;11.302;2024-01-07T12:35:57;97120.44;;;6.40;100.00
40315;BME280;26021;45.640;11.302;2024-01-07T12:38:26;97205.34;;;7.04;100.00
40315;BME280;26021;45.640;11.302;2024-01-07T12:40:52;97220.59;;;6.95;100.00
40315;BME280;26021;45.640;11.302;2024-01-07T12:43:18;97188.78;;;6.74;100.00
40315;BME280;26021;45.640;11.302;2024-01-07T12:45:44;97221.44;;;6.95;100.00
40315;BME280;26021;45.640;11.302;2024-01-07T12:48:10;97208.91;;;6.89;100.00